Time;durP1;ratioP1;P1;durP2;ratioP2;P2;SDS_P1;SDS_P2;PMS_P1;PMS_P2;Temp;Humidity;BMP_temperature;BMP_pressure;BME280_temperature;BME280_humidity;BME280_pressure;Samples;Min_cycle;Max_cycle;Signal;HPM_P1;HPM_P2
2023/03/21 00:01:19;;;;;;;4.03;2.30;;;;;;;2.16;100.00;93151.66;2558523;23;20017;-85
2023/03/21 00:02:34;;;;;;;2.88;2.05;;;;;;;2.10;100.00;93145.16;2558762;23;20001;-84
2023/03/21 00:04:02;;;;;;;;;;;;;;;;;;;;;
2023/03/21 00:05:24;;;;;;;3.80;2.00;;;;;;;2.00;100.00;93146.59;2564495;23;20000;-84
2023/03/21 00:06:35;;;;;;;3.28;1.77;;;;;;;1.98;100.00;93140.94;2545016;23;20005;-84
2023/03/21 00:07:40;;;;;;;5.28;1.98;;;;;;;2.03;100.00;93136.44;2538273;23;20025;-84
2023/03/21 00:08:48;;;;;;;2.65;1.95;;;;;;;2.10;100.00;93141.78;2536466;23;20437;-84
2023/03/21 00:09:55;;;;;;;3.00;2.03;;;;;;;2.11;100.00;93140.66;2540641;23;20429;-84
2023/03/21 00:11:04;;;;;;;2.65;1.90;;;;;;;2.16;100.00;93138.47;2548765;23;19990;-84
2023/03/21 00:12:06;;;;;;;3.75;2.05;;;;;;;2.09;100.00;93141.03;2561805;23;20037;-84
2023/03/21 00:13:11;;;;;;;5.05;2.08;;;;;;;2.11;100.00;93140.66;2567945;23;20060;-84
2023/03/21 00:14:18;;;;;;;3.47;2.08;;;;;;;2.18;100.00;93144.13;2566431;23;20001;-85
2023/03/21 00:15:20;;;;;;;4.25;1.95;;;;;;;2.21;100.00;93145.28;2554101;23;20002;-84
2023/03/21 00:16:29;;;;;;;2.20;2.00;;;;;;;2.19;100.00;93145.63;2539310;23;20002;-84
2023/03/21 00:17:44;;;;;;;4.22;1.90;;;;;;;2.10;100.00;93155.72;2539656;23;20017;-83
2023/03/21 00:18:51;;;;;;;4.13;2.25;;;;;;;2.10;100.00;93158.34;2542425;23;20010;-84
2023/03/21 00:19:59;;;;;;;3.00;2.00;;;;;;;2.09;100.00;93161.34;2550950;23;20029;-85
2023/03/21 00:21:10;;;;;;;2.83;1.85;;;;;;;2.00;100.00;93149.22;2549657;23;20381;-85
2023/03/21 00:22:13;;;;;;;3.38;2.30;;;;;;;2.01;100.00;93153.38;2539405;23;20066;-84
2023/03/21 00:23:14;;;;;;;3.85;2.20;;;;;;;1.98;100.00;93150.72;2536492;23;20006;-83
2023/03/21 00:24:17;;;;;;;3.53;2.17;;;;;;;2.00;100.00;93156.38;2536024;23;20010;-85
2023/03/21 00:25:19;;;;;;;3.10;2.03;;;;;;;1.98;100.00;93150.72;2536286;23;20002;-83
2023/03/21 00:26:23;;;;;;;2.47;1.95;;;;;;;2.15;100.00;93150.16;2535778;23;20452;-84
2023/03/21 00:27:32;;;;;;;2.22;2.00;;;;;;;1.92;100.00;93152.13;2548823;23;20523;-84
2023/03/21 00:28:39;;;;;;;2.38;1.95;;;;;;;1.90;100.00;93152.50;2555331;23;20009;-84
2023/03/21 00:29:58;;;;;;;4.32;2.20;;;;;;;1.87;100.00;93152.47;2551271;23;20005;-84
2023/03/21 00:31:20;;;;;;;2.40;2.00;;;;;;;1.78;100.00;93150.09;2551696;23;20033;-85
2023/03/21 00:32:31;;;;;;;1.98;1.77;;;;;;;1.73;100.00;93151.19;2527472;23;20052;-85
2023/03/21 00:33:39;;;;;;;3.45;2.03;;;;;;;1.71;100.00;93147.38;2526732;23;20345;-84
2023/03/21 00:34:51;;;;;;;5.57;2.03;;;;;;;1.68;100.00;93143.59;2525501;23;20529;-84
2023/03/21 00:36:03;;;;;;;2.15;1.80;;;;;;;1.57;100.00;93142.69;2515295;23;20010;-84
2023/03/21 00:37:18;;;;;;;2.20;1.92;;;;;;;1.59;100.00;93148.38;2518138;23;20010;-85
2023/03/21 00:38:31;;;;;;;4.97;2.15;;;;;;;1.57;100.00;93144.56;2527873;23;20048;-86
2023/03/21 00:39:35;;;;;;;5.70;2.08;;;;;;;1.55;100.00;93144.94;2534811;23;20412;-85
2023/03/21 00:40:49;;;;;;;2.83;2.00;;;;;;;1.55;100.00;93142.31;2526175;23;20002;-84
2023/03/21 00:42:11;;;;;;;2.28;1.83;;;;;;;1.50;100.00;93138.09;2524522;23;20016;-84
2023/03/21 00:43:33;;;;;;;2.60;1.73;;;;;;;1.51;100.00;93138.88;2519688;23;20006;-85
2023/03/21 00:45:02;;;;;;;2.28;1.90;;;;;;;1.50;100.00;93135.47;2530515;23;20002;-84
2023/03/21 00:46:49;;;;;;;3.40;2.30;;;;;;;1.44;100.00;93138.75;2541665;23;20420;-85
2023/03/21 00:48:00;;;;;;;3.97;2.50;;;;;;;1.33;100.00;93136.00;2543808;23;20009;-84
2023/03/21 00:49:01;;;;;;;2.58;2.00;;;;;;;1.29;100.00;93131.81;2536257;23;20006;-84
2023/03/21 00:50:07;;;;;;;3.28;2.30;;;;;;;1.35;100.00;93131.13;2522166;23;20346;-84
2023/03/21 00:51:25;;;;;;;2.63;2.00;;;;;;;1.39;100.00;93131.19;2535032;23;20005;-85
2023/03/21 00:52:30;;;;;;;3.75;2.10;;;;;;;1.38;100.00;93127.78;2534102;23;20006;-85
2023/03/21 00:54:04;;;;;;;2.95;1.95;;;;;;;1.30;100.00;93128.81;2524046;23;20589;-85
2023/03/21 00:55:15;;;;;;;2.17;2.05;;;;;;;1.32;100.00;93131.84;2540189;23;20010;-85
2023/03/21 00:56:21;;;;;;;7.28;2.20;;;;;;;1.34;100.00;93131.50;2524683;23;20007;-85
2023/03/21 00:57:24;;;;;;;2.90;2.08;;;;;;;1.35;100.00;93133.75;2534375;23;19998;-83
2023/03/21 00:59:05;;;;;;;3.28;2.00;;;;;;;1.28;100.00;93140.81;2524800;23;20015;-84
2023/03/21 01:00:14;;;;;;;3.67;2.13;;;;;;;1.23;100.00;93132.13;2529177;23;20010;-84
2023/03/21 01:01:16;;;;;;;4.95;2.63;;;;;;;1.32;100.00;93134.50;2512791;23;20014;-84
2023/03/21 01:02:21;;;;;;;3.70;2.20;;;;;;;1.28;100.00;93133.69;2521913;23;20329;-84
2023/03/21 01:03:25;;;;;;;3.47;2.30;;;;;;;1.22;100.00;93135.84;2522278;23;20022;-84
2023/03/21 01:04:27;;;;;;;4.22;2.33;;;;;;;1.28;100.00;93133.69;2533514;23;20085;-83
2023/03/21 01:06:56;;;;;;;4.13;2.45;;;;;;;1.10;100.00;93132.66;2529893;23;20002;-85
2023/03/21 01:08:04;;;;;;;2.53;2.00;;;;;;;1.12;100.00;93133.09;2523099;23;20452;-86
2023/03/21 01:09:23;;;;;;;4.40;2.03;;;;;;;1.13;100.00;93131.97;2512467;23;20073;-85
2023/03/21 01:10:30;;;;;;;2.85;2.05;;;;;;;1.07;100.00;93130.75;2516914;23;20009;-84
2023/03/21 01:11:34;;;;;;;2.22;1.95;;;;;;;1.00;100.00;93126.13;2512169;23;20007;-84
2023/03/21 01:12:47;;;;;;;2.58;2.13;;;;;;;0.95;100.00;93127.19;2523406;23;20010;-85
2023/03/21 01:13:59;;;;;;;3.13;2.20;;;;;;;1.02;100.00;93133.69;2525151;23;20006;-84
2023/03/21 01:15:12;;;;;;;3.10;1.90;;;;;;;1.09;100.00;93129.28;2533432;23;20013;-84
2023/03/21 01:16:28;;;;;;;3.33;2.22;;;;;;;1.13;100.00;93129.31;2526462;23;20315;-84
2023/03/21 01:17:32;;;;;;;4.97;2.28;;;;;;;1.28;100.00;93125.03;2524810;23;20002;-85
2023/03/21 01:18:40;;;;;;;5.30;2.10;;;;;;;1.32;100.00;93120.53;2510986;23;19999;-84
2023/03/21 01:19:51;;;;;;;3.53;2.28;;;;;;;1.29;100.00;93121.28;2512556;23;20025;-85
2023/03/21 01:21:02;;;;;;;2.85;2.00;;;;;;;1.37;100.00;93126.28;2525060;23;20430;-84
2023/03/21 01:22:07;;;;;;;3.38;2.42;;;;;;;1.23;100.00;93116.31;2524309;23;19998;-84
2023/03/21 01:23:16;;;;;;;2.95;2.17;;;;;;;1.04;100.00;93121.69;2522742;23;20361;-84
2023/03/21 01:24:19;;;;;;;3.45;2.40;;;;;;;0.95;100.00;93124.56;2513527;23;20003;-84
2023/03/21 01:25:21;;;;;;;3.05;2.03;;;;;;;0.88;100.00;93116.59;2510533;23;20010;-84
2023/03/21 01:26:27;;;;;;;3.70;2.13;;;;;;;0.89;100.00;93120.75;2509990;23;20030;-85
2023/03/21 01:27:31;;;;;;;4.15;2.20;;;;;;;0.76;100.00;93119.41;2535293;23;20037;-85
2023/03/21 01:28:45;;;;;;;2.53;1.90;;;;;;;0.91;100.00;93125.63;2533924;23;20014;-84
2023/03/21 01:29:49;;;;;;;3.05;2.00;;;;;;;0.93;100.00;93120.78;2516062;23;20491;-84
2023/03/21 01:30:53;;;;;;;4.97;2.22;;;;;;;0.82;100.00;93115.34;2521949;23;20006;-84
2023/03/21 01:32:09;;;;;;;3.28;2.17;;;;;;;0.72;100.00;93121.22;2528296;23;20014;-84
2023/03/21 01:33:14;;;;;;;5.15;2.08;;;;;;;0.71;100.00;93109.19;2550090;23;20332;-85
2023/03/21 01:34:28;;;;;;;3.05;2.08;;;;;;;0.75;100.00;93110.00;2547410;23;20008;-84
2023/03/21 01:35:41;;;;;;;3.70;2.10;;;;;;;0.83;100.00;93110.84;2540761;23;20097;-84
2023/03/21 01:36:50;;;;;;;4.90;1.90;;;;;;;0.90;100.00;93114.34;2549201;23;20002;-85
2023/03/21 01:37:55;;;;;;;3.15;1.80;;;;;;;0.86;100.00;93107.53;2537064;23;20010;-84
2023/03/21 01:39:05;;;;;;;3.05;1.83;;;;;;;0.82;100.00;93109.34;2560217;23;20443;-84
2023/03/21 01:40:30;;;;;;;3.03;1.92;;;;;;;0.75;100.00;93102.88;2548418;23;20016;-84
2023/03/21 01:41:48;;;;;;;3.70;1.95;;;;;;;0.73;100.00;93104.31;2552381;23;20004;-83
2023/03/21 01:42:57;;;;;;;2.20;1.90;;;;;;;0.77;100.00;93112.28;2541162;23;20010;-84
2023/03/21 01:44:05;;;;;;;2.28;1.75;;;;;;;0.73;100.00;93105.09;2536358;23;20008;-84
2023/03/21 01:45:45;;;;;;;2.97;1.85;;;;;;;0.77;100.00;93113.03;2537934;23;19998;-84
2023/03/21 01:47:03;;;;;;;2.20;1.92;;;;;;;0.80;100.00;93116.84;2564514;23;20011;-84
2023/03/21 01:48:16;;;;;;;2.97;2.00;;;;;;;0.76;100.00;93103.63;2549083;23;20041;-84
2023/03/21 01:49:44;;;;;;;2.45;2.00;;;;;;;0.90;100.00;93108.34;2548687;23;20001;-85
2023/03/21 01:51:23;;;;;;;2.42;2.03;;;;;;;0.77;100.00;93107.00;2552087;23;20001;-84
2023/03/21 01:52:50;;;;;;;2.90;2.00;;;;;;;0.66;100.00;93114.72;2555381;23;20088;-84
2023/03/21 01:54:13;;;;;;;3.58;2.25;;;;;;;0.74;100.00;93113.72;2552688;23;20488;-84
2023/03/21 01:55:24;;;;;;;3.15;1.80;;;;;;;0.73;100.00;93107.72;2544526;23;20787;-84
2023/03/21 01:56:58;;;;;;;2.03;1.83;;;;;;;0.62;100.00;93108.69;2563714;23;19997;-84
2023/03/21 01:58:19;;;;;;;2.63;1.88;;;;;;;0.58;100.00;93103.38;2553761;23;20009;-84
2023/03/21 01:59:55;;;;;;;2.47;1.80;;;;;;;0.61;100.00;93096.63;2541136;23;20032;-84
2023/03/21 02:01:21;;;;;;;3.50;1.92;;;;;;;0.64;100.00;93103.81;2529363;23;20408;-85
2023/03/21 02:02:53;;;;;;;;;;;;;;;0.69;100.00;93104.28;2546186;23;20032;-85
2023/03/21 02:04:36;;;;;;;2.90;1.85;;;;;;;0.75;100.00;93102.13;2551389;23;19904;-84
2023/03/21 02:06:34;;;;;;;4.88;2.22;;;;;;;0.72;100.00;93105.44;2555941;23;20001;-84
2023/03/21 02:08:05;;;;;;;2.28;1.80;;;;;;;0.53;100.00;93100.25;2554902;23;20036;-84
2023/03/21 02:09:25;;;;;;;3.20;1.88;;;;;;;0.47;100.00;93097.94;2546575;23;20008;-84
2023/03/21 02:10:32;;;;;;;2.20;1.67;;;;;;;0.42;100.00;93095.59;2541845;23;20837;-84
2023/03/21 02:11:36;;;;;;;2.33;2.08;;;;;;;0.47;100.00;93094.53;2535859;23;20002;-84
2023/03/21 02:13:14;;;;;;;2.75;1.65;;;;;;;0.46;100.00;93095.66;2551089;23;20004;-85
2023/03/21 02:14:29;;;;;;;2.50;1.80;;;;;;;0.69;100.00;93091.13;2551717;23;20341;-84
2023/03/21 02:16:03;;;;;;;2.70;1.67;;;;;;;0.78;100.00;93085.59;2561463;23;20008;-84
2023/03/21 02:17:31;;;;;;;2.30;1.70;;;;;;;0.80;100.00;93090.53;2558310;23;20012;-84
2023/03/21 02:19:56;;;;;;;;;;;;;;;0.60;100.00;93097.75;2148689;27;20555;-72
2023/03/21 02:21:21;;;;;;;2.28;1.90;;;;;;;0.48;100.00;93091.56;2139349;27;19930;-72
2023/03/21 02:22:53;;;;;;;2.15;1.70;;;;;;;0.34;100.00;93083.44;2143908;27;20037;-72
2023/03/21 02:23:57;;;;;;;3.75;2.10;;;;;;;0.36;100.00;93083.13;2135844;27;20031;-71
2023/03/21 02:25:29;;;;;;;2.25;1.90;;;;;;;0.35;100.00;93085.00;2136927;27;20108;-73
2023/03/21 02:27:05;;;;;;;3.90;1.80;;;;;;;0.34;100.00;93088.69;2130122;27;20035;-74
2023/03/21 02:28:09;;;;;;;3.78;1.92;;;;;;;0.45;100.00;93081.75;2132704;27;20117;-72
2023/03/21 02:29:51;;;;;;;3.47;2.00;;;;;;;0.46;100.00;93078.00;2137742;27;20035;-73
2023/03/21 02:31:09;;;;;;;3.22;2.08;;;;;;;0.39;100.00;93083.16;2128735;27;20062;-73
2023/03/21 02:32:39;;;;;;;2.30;2.10;;;;;;;0.45;100.00;93081.75;2129100;27;20042;-73
2023/03/21 02:33:49;;;;;;;3.03;1.88;;;;;;;0.47;100.00;93081.41;2134881;27;20067;-73
2023/03/21 02:35:09;;;;;;;2.17;1.80;;;;;;;0.50;100.00;93086.72;2134754;27;20031;-73
2023/03/21 02:36:26;;;;;;;1.98;1.77;;;;;;;0.69;100.00;93085.84;2135576;27;20038;-75
2023/03/21 02:37:51;;;;;;;2.67;2.22;;;;;;;0.57;100.00;93083.44;2138234;27;20031;-75
2023/03/21 02:39:06;;;;;;;3.50;2.00;;;;;;;0.44;100.00;93080.25;2119443;28;20031;-74
2023/03/21 02:40:22;;;;;;;4.88;2.33;;;;;;;0.35;100.00;93078.94;2121269;27;20035;-77
2023/03/21 02:41:47;;;;;;;2.17;1.98;;;;;;;0.32;100.00;93077.03;2138000;27;20156;-73
2023/03/21 02:42:57;;;;;;;2.60;2.03;;;;;;;0.33;100.00;93076.69;2126885;27;20368;-73
2023/03/21 02:44:03;;;;;;;2.03;1.75;;;;;;;0.47;100.00;93084.03;2112960;28;20042;-74
2023/03/21 02:45:16;;;;;;;3.50;2.15;;;;;;;0.54;100.00;93078.88;2112913;27;20047;-74
2023/03/21 02:46:29;;;;;;;2.95;1.95;;;;;;;0.54;100.00;93075.50;2130161;27;20096;-73
2023/03/21 02:47:52;;;;;;;2.10;1.90;;;;;;;0.62;100.00;93072.63;2133494;27;20681;-76
2023/03/21 02:49:11;;;;;;;2.58;2.00;;;;;;;0.67;100.00;93080.22;2128528;27;20476;-74
2023/03/21 02:50:29;;;;;;;3.40;2.10;;;;;;;0.72;100.00;93079.91;2124677;27;20043;-73
2023/03/21 02:51:33;;;;;;;2.15;1.95;;;;;;;0.56;100.00;93078.53;2134378;27;20026;-74
2023/03/21 02:52:37;;;;;;;3.42;2.10;;;;;;;0.43;100.00;93076.06;2134377;27;20550;-73
2023/03/21 02:53:42;;;;;;;2.33;1.80;;;;;;;0.47;100.00;93076.88;2137850;27;20066;-77
2023/03/21 02:54:47;;;;;;;2.17;1.80;;;;;;;0.51;100.00;93074.31;2139287;27;20066;-74
2023/03/21 02:55:51;;;;;;;2.83;2.03;;;;;;;0.54;100.00;93073.63;2128910;27;20030;-73
2023/03/21 02:56:55;;;;;;;2.15;1.90;;;;;;;0.55;100.00;93079.63;2129571;27;20105;-74
2023/03/21 02:57:58;;;;;;;2.08;1.80;;;;;;;0.56;100.00;93070.63;2128687;27;20026;-73
2023/03/21 02:59:02;;;;;;;2.65;1.83;;;;;;;0.46;100.00;93078.00;2115680;27;20115;-74
2023/03/21 03:00:10;;;;;;;2.40;1.95;;;;;;;0.45;100.00;93073.13;2129177;27;20031;-75
2023/03/21 03:01:12;;;;;;;4.57;2.10;;;;;;;0.42;100.00;93071.94;2128587;27;20110;-74
2023/03/21 03:02:15;;;;;;;3.58;1.90;;;;;;;0.47;100.00;93074.25;2128811;27;20042;-74
2023/03/21 03:03:16;;;;;;;3.63;1.98;;;;;;;0.48;100.00;93064.50;2128654;27;20035;-74
2023/03/21 03:04:26;;;;;;;4.28;2.28;;;;;;;0.49;100.00;93071.31;2128324;27;20495;-73
2023/03/21 03:05:29;;;;;;;2.47;2.13;;;;;;;0.41;100.00;93067.03;2115064;28;20027;-74
2023/03/21 03:06:50;;;;;;;2.63;1.88;;;;;;;0.47;100.00;93065.63;2112640;27;20048;-74
2023/03/21 03:07:56;;;;;;;2.17;1.73;;;;;;;0.54;100.00;93062.34;2137748;27;20078;-74
2023/03/21 03:09:15;;;;;;;2.20;1.70;;;;;;;0.47;100.00;93068.25;2128647;27;20059;-74
2023/03/21 03:10:24;;;;;;;5.70;1.98;;;;;;;0.41;100.00;93062.53;2120978;27;20122;-74
2023/03/21 03:11:39;;;;;;;3.70;1.88;;;;;;;0.36;100.00;93065.47;2117734;27;20065;-74
2023/03/21 03:12:53;;;;;;;3.10;1.70;;;;;;;0.28;100.00;93065.72;2119493;27;20031;-74
2023/03/21 03:14:06;;;;;;;2.38;2.17;;;;;;;0.37;100.00;93060.97;2118059;28;20426;-74
2023/03/21 03:15:49;;;;;;;4.20;1.95;;;;;;;0.38;100.00;93065.84;2104897;28;20032;-75
2023/03/21 03:17:27;;;;;;;3.97;1.80;;;;;;;0.32;100.00;93066.53;2131939;27;20018;-74
2023/03/21 03:18:49;;;;;;;4.80;3.05;;;;;;;0.35;100.00;93065.81;2137152;27;20037;-74
2023/03/21 03:19:51;;;;;;;3.20;1.70;;;;;;;0.36;100.00;93068.09;2136258;27;20038;-74
2023/03/21 03:21:02;;;;;;;2.30;1.70;;;;;;;0.38;100.00;93065.09;2137376;27;20030;-74
2023/03/21 03:22:21;;;;;;;3.28;2.17;;;;;;;0.38;100.00;93060.59;2133674;27;20449;-74
2023/03/21 03:23:40;;;;;;;4.40;2.03;;;;;;;0.33;100.00;93055.66;2134164;27;20826;-74
2023/03/21 03:24:52;;;;;;;3.55;2.20;;;;;;;0.32;100.00;93058.63;2134652;27;20071;-74
2023/03/21 03:26:07;;;;;;;2.05;1.88;;;;;;;0.32;100.00;93051.50;2136864;27;20065;-74
2023/03/21 03:27:24;;;;;;;3.85;1.80;;;;;;;0.35;100.00;93055.28;2132809;27;20177;-75
2023/03/21 03:28:32;;;;;;;2.80;1.95;;;;;;;0.30;100.00;93058.22;2137102;27;20083;-72
2023/03/21 03:29:38;;;;;;;2.03;1.83;;;;;;;0.30;100.00;93058.97;2128119;27;20042;-75
2023/03/21 03:30:39;;;;;;;2.88;1.90;;;;;;;0.18;100.00;93057.31;2126313;27;20492;-73
2023/03/21 03:31:51;;;;;;;2.65;1.92;;;;;;;0.17;100.00;93049.75;2121724;27;20366;-73
2023/03/21 03:32:56;;;;;;;2.13;1.92;;;;;;;0.23;100.00;93064.88;2122654;27;20031;-73
2023/03/21 03:34:03;;;;;;;5.45;2.25;;;;;;;0.19;100.00;93058.81;2114614;27;20031;-73
2023/03/21 03:35:05;;;;;;;5.32;1.90;;;;;;;0.20;100.00;93060.31;2118811;27;20039;-75
2023/03/21 03:36:10;;;;;;;2.63;1.90;;;;;;;0.16;100.00;93053.50;2132067;27;20039;-74
2023/03/21 03:37:15;;;;;;;2.83;2.00;;;;;;;0.16;100.00;93053.50;2122370;27;20032;-73
2023/03/21 03:38:17;;;;;;;4.03;2.00;;;;;;;0.14;100.00;93053.84;2114973;27;20039;-72
2023/03/21 03:39:18;;;;;;;3.58;2.10;;;;;;;0.15;100.00;93055.38;2114230;27;20035;-73
2023/03/21 03:40:28;;;;;;;3.65;1.80;;;;;;;0.16;100.00;93058.75;2122801;27;20031;-73
2023/03/21 03:41:35;;;;;;;;;;;;;;;0.19;100.00;93050.94;2119020;27;20027;-73
2023/03/21 03:42:57;;;;;;;4.10;1.92;;;;;;;0.17;100.00;93057.63;2120025;27;19955;-74
2023/03/21 03:44:02;;;;;;;3.80;1.92;;;;;;;0.15;100.00;93050.13;2125444;27;20113;-74
2023/03/21 03:45:05;;;;;;;3.22;2.10;;;;;;;0.14;100.00;93053.09;2128126;27;20089;-74
2023/03/21 03:46:16;;;;;;;2.50;2.00;;;;;;;0.13;100.00;93059.44;2122457;27;20039;-73
2023/03/21 03:47:29;;;;;;;2.90;1.88;;;;;;;0.13;100.00;93054.19;2123976;27;20473;-76
2023/03/21 03:48:47;;;;;;;3.50;1.95;;;;;;;0.01;100.00;93051.75;2127162;27;20027;-73
2023/03/21 03:50:10;;;;;;;3.78;1.92;;;;;;;-0.02;100.00;93053.97;2122031;27;20059;-73
2023/03/21 03:51:19;;;;;;;2.20;1.58;;;;;;;0.01;100.00;93049.88;2121242;27;20030;-72
2023/03/21 03:52:27;;;;;;;3.10;2.00;;;;;;;-0.01;100.00;93052.09;2127037;27;20411;-75
2023/03/21 03:53:32;;;;;;;1.83;1.73;;;;;;;-0.01;100.00;93050.22;2131254;27;20113;-73
2023/03/21 03:54:42;;;;;;;2.70;2.00;;;;;;;-0.01;100.00;93049.47;2127767;27;20464;-73
2023/03/21 03:55:50;;;;;;;6.67;2.13;;;;;;;-0.14;100.00;93056.00;2131016;27;20026;-73
2023/03/21 03:56:51;;;;;;;3.10;2.10;;;;;;;-0.11;100.00;93050.81;2122135;27;20502;-76
2023/03/21 03:57:53;;;;;;;3.53;2.00;;;;;;;-0.13;100.00;93052.25;2122404;27;20031;-73
2023/03/21 03:58:56;;;;;;;3.63;2.00;;;;;;;-0.12;100.00;93048.53;2131358;27;20114;-76
2023/03/21 03:59:57;;;;;;;3.10;2.17;;;;;;;-0.15;100.00;93042.09;2131576;27;20037;-73
2023/03/21 04:00:58;;;;;;;1.95;1.70;;;;;;;-0.11;100.00;93042.16;2129097;27;20043;-74
2023/03/21 04:02:00;;;;;;;5.53;2.20;;;;;;;-0.17;100.00;93054.09;2128531;27;20071;-74
2023/03/21 04:03:01;;;;;;;1.92;1.75;;;;;;;-0.11;100.00;93050.06;2127600;27;20031;-73
2023/03/21 04:04:02;;;;;;;4.97;1.88;;;;;;;-0.12;100.00;93057.19;2131108;27;20051;-73
2023/03/21 04:05:04;;;;;;;2.80;2.10;;;;;;;-0.17;100.00;93057.47;2122155;27;20031;-74
2023/03/21 04:06:05;;;;;;;1.98;1.80;;;;;;;-0.11;100.00;93042.16;2113967;28;20035;-74
2023/03/21 04:07:06;;;;;;;3.08;1.90;;;;;;;-0.16;100.00;93048.47;2122519;27;20095;-76
2023/03/21 04:08:08;;;;;;;2.15;1.70;;;;;;;-0.14;100.00;93043.63;2131004;27;20534;-74
2023/03/21 04:09:09;;;;;;;4.60;1.92;;;;;;;-0.16;100.00;93040.59;2121702;27;20042;-74
2023/03/21 04:10:13;;;;;;;2.55;2.00;;;;;;;-0.14;100.00;93046.25;2122271;27;20054;-75
2023/03/21 04:11:15;;;;;;;3.13;2.03;;;;;;;-0.24;100.00;93052.06;2122138;27;20053;-73
2023/03/21 04:12:18;;;;;;;1.67;1.58;;;;;;;-0.25;100.00;93045.31;2122346;27;20039;-74
2023/03/21 04:13:20;;;;;;;3.60;1.73;;;;;;;-0.20;100.00;93039.00;2126555;27;20555;-74
2023/03/21 04:14:21;;;;;;;2.53;1.90;;;;;;;-0.27;100.00;93040.41;2130948;27;20030;-74
2023/03/21 04:15:22;;;;;;;2.80;1.77;;;;;;;-0.21;100.00;93040.88;2131069;27;20027;-72
2023/03/21 04:16:24;;;;;;;4.63;1.90;;;;;;;-0.08;100.00;93036.97;2131460;27;20079;-73
2023/03/21 04:17:25;;;;;;;2.53;1.98;;;;;;;-0.07;100.00;93038.50;2122471;27;20054;-74
2023/03/21 04:18:26;;;;;;;4.15;2.08;;;;;;;-0.05;100.00;93038.88;2113787;28;20115;-74
2023/03/21 04:19:27;;;;;;;2.15;1.95;;;;;;;-0.11;100.00;93031.66;2121196;27;20038;-77
2023/03/21 04:20:28;;;;;;;2.03;1.50;;;;;;;-0.12;100.00;93032.78;2126037;27;20464;-73
2023/03/21 04:21:32;;;;;;;4.43;1.90;;;;;;;-0.18;100.00;93042.78;2122055;27;20035;-76
2023/03/21 04:22:33;;;;;;;1.80;1.70;;;;;;;-0.27;100.00;93037.75;2122743;27;20110;-72
2023/03/21 04:23:35;;;;;;;3.22;2.00;;;;;;;-0.34;100.00;93035.03;2131252;27;20027;-75
2023/03/21 04:24:36;;;;;;;3.72;2.08;;;;;;;-0.38;100.00;93033.47;2130605;27;20023;-76
2023/03/21 04:25:37;;;;;;;2.30;2.10;;;;;;;-0.39;100.00;93040.56;2111443;28;20028;-75
2023/03/21 04:26:39;;;;;;;3.38;1.85;;;;;;;-0.42;100.00;93033.38;2100666;28;20039;-73
2023/03/21 04:27:57;;;;;;;3.50;1.80;;;;;;;-0.24;100.00;93035.56;2105229;28;20470;-75
2023/03/21 04:28:59;;;;;;;4.13;2.03;;;;;;;-0.30;100.00;93035.84;2124374;27;20039;-72
2023/03/21 04:30:01;;;;;;;4.10;1.70;;;;;;;-0.31;100.00;93036.97;2121297;27;20034;-72
2023/03/21 04:31:06;;;;;;;2.10;1.90;;;;;;;-0.34;100.00;93040.28;2121832;27;20110;-73
2023/03/21 04:32:18;;;;;;;3.45;1.90;;;;;;;-0.36;100.00;93034.59;2121896;27;20047;-76
2023/03/21 04:33:19;;;;;;;4.57;2.13;;;;;;;-0.40;100.00;93044.28;2123630;27;20058;-72
2023/03/21 04:34:22;;;;;;;3.42;2.20;;;;;;;-0.48;100.00;93045.28;2130992;27;20556;-73
2023/03/21 04:35:24;;;;;;;2.78;1.88;;;;;;;-0.47;100.00;93032.91;2130082;27;20077;-73
2023/03/21 04:36:29;;;;;;;2.50;1.83;;;;;;;-0.45;100.00;93035.94;2121653;27;20033;-73
2023/03/21 04:37:32;;;;;;;3.00;1.88;;;;;;;-0.52;100.00;93047.09;2118528;27;20046;-76
2023/03/21 04:38:35;;;;;;;2.05;1.85;;;;;;;-0.51;100.00;93046.72;2127984;27;20061;-73
2023/03/21 04:39:37;;;;;;;3.22;1.88;;;;;;;-0.48;100.00;93052.38;2131028;27;20123;-73
2023/03/21 04:40:38;;;;;;;2.88;1.92;;;;;;;-0.45;100.00;93041.19;2121632;27;20351;-75
2023/03/21 04:41:40;;;;;;;2.65;2.05;;;;;;;-0.48;100.00;93040.03;2112950;28;20034;-73
2023/03/21 04:42:41;;;;;;;3.03;1.98;;;;;;;-0.46;100.00;93039.69;2122737;27;20042;-73
2023/03/21 04:43:43;;;;;;;2.72;2.00;;;;;;;-0.51;100.00;93043.34;2113236;28;20031;-73
2023/03/21 04:44:48;;;;;;;2.85;1.95;;;;;;;-0.55;100.00;93043.28;2113533;28;20026;-73
2023/03/21 04:45:49;;;;;;;2.00;1.80;;;;;;;-0.52;100.00;93033.97;2121983;27;20031;-76
2023/03/21 04:46:50;;;;;;;3.15;1.80;;;;;;;-0.47;100.00;93036.31;2131242;27;20381;-75
2023/03/21 04:47:51;;;;;;;4.18;2.20;;;;;;;-0.49;100.00;93035.13;2130748;27;20026;-76
2023/03/21 04:48:54;;;;;;;4.43;2.25;;;;;;;-0.57;100.00;93042.09;2131032;27;20030;-74
2023/03/21 04:49:56;;;;;;;5.07;1.58;;;;;;;-0.57;100.00;93040.25;2126302;27;20041;-75
2023/03/21 04:50:57;;;;;;;1.95;1.80;;;;;;;-0.51;100.00;93036.22;2130947;27;20026;-77
2023/03/21 04:51:58;;;;;;;2.78;1.90;;;;;;;-0.47;100.00;93038.16;2131181;27;20051;-74
2023/03/21 04:53:00;;;;;;;2.88;1.92;;;;;;;-0.48;100.00;93041.88;2121425;27;20019;-73
2023/03/21 04:54:02;;;;;;;2.30;2.08;;;;;;;-0.58;100.00;93041.34;2121875;27;20373;-77
2023/03/21 04:55:03;;;;;;;3.78;2.10;;;;;;;-0.57;100.00;93036.84;2121812;27;20474;-75
2023/03/21 04:56:05;;;;;;;2.85;1.60;;;;;;;-0.57;100.00;93040.25;2121875;27;20502;-74
2023/03/21 04:57:06;;;;;;;2.22;1.83;;;;;;;-0.63;100.00;93041.63;2131270;27;20034;-73
2023/03/21 04:58:07;;;;;;;2.72;1.98;;;;;;;-0.67;100.00;93046.03;2127977;27;20513;-72
2023/03/21 04:59:15;;;;;;;2.40;2.00;;;;;;;-0.60;100.00;93035.69;2131704;27;20042;-74
2023/03/21 05:00:16;;;;;;;2.50;1.75;;;;;;;-0.59;100.00;93047.69;2130946;27;20079;-75
2023/03/21 05:01:19;;;;;;;4.75;2.25;;;;;;;-0.64;100.00;93040.13;2130990;27;20033;-73
2023/03/21 05:02:21;;;;;;;2.72;1.80;;;;;;;-0.67;100.00;93038.16;2130838;27;20030;-75
2023/03/21 05:03:24;;;;;;;1.88;1.70;;;;;;;-0.63;100.00;93046.13;2130984;27;20083;-75
2023/03/21 05:04:29;;;;;;;3.30;1.85;;;;;;;-0.68;100.00;93041.16;2121980;27;20076;-74
2023/03/21 05:05:30;;;;;;;2.00;1.80;;;;;;;-0.74;100.00;93038.06;2118130;27;20023;-75
2023/03/21 05:06:33;;;;;;;2.92;1.92;;;;;;;-0.74;100.00;93040.69;2130446;27;20022;-75
2023/03/21 05:07:34;;;;;;;2.25;1.88;;;;;;;-0.73;100.00;93046.69;2130534;27;20026;-73
2023/03/21 05:08:36;;;;;;;3.33;1.70;;;;;;;-0.80;100.00;93045.41;2121419;27;20071;-73
2023/03/21 05:09:37;;;;;;;4.75;2.00;;;;;;;-0.79;100.00;93046.97;2121744;27;20027;-73
2023/03/21 05:10:38;;;;;;;3.55;1.88;;;;;;;-0.65;100.00;93050.97;2130679;27;20051;-72
2023/03/21 05:11:40;;;;;;;3.05;1.88;;;;;;;-0.61;100.00;93042.06;2132425;27;20039;-74
2023/03/21 05:12:41;;;;;;;4.40;2.00;;;;;;;-0.60;100.00;93040.19;2129780;27;20083;-73
2023/03/21 05:13:42;;;;;;;4.68;2.28;;;;;;;-0.64;100.00;93044.59;2112472;28;20038;-75
2023/03/21 05:14:44;;;;;;;3.45;2.47;;;;;;;-0.64;100.00;93044.59;2113235;27;20102;-73
2023/03/21 05:15:45;;;;;;;3.20;2.88;;;;;;;-0.66;100.00;93052.06;2130516;27;20036;-73
2023/03/21 05:16:51;;;;;;;4.43;3.10;;;;;;;-0.63;100.00;93043.50;2130876;27;20038;-76
2023/03/21 05:17:52;;;;;;;5.47;3.67;;;;;;;-0.68;100.00;93041.16;2130259;27;20042;-73
2023/03/21 05:18:54;;;;;;;4.10;3.13;;;;;;;-0.67;100.00;93048.66;2126371;27;20026;-76
2023/03/21 05:19:55;;;;;;;5.00;2.65;;;;;;;-0.65;100.00;93048.34;2121541;27;20381;-76
2023/03/21 05:20:56;;;;;;;5.72;2.70;;;;;;;-0.64;100.00;93044.59;2121593;27;20023;-75
2023/03/21 05:21:57;;;;;;;2.67;2.17;;;;;;;-0.68;100.00;93043.78;2130942;27;20353;-73
2023/03/21 05:22:58;;;;;;;5.38;2.30;;;;;;;-0.72;100.00;93041.06;2130624;27;20030;-74
2023/03/21 05:24:02;;;;;;;4.57;2.67;;;;;;;-0.66;100.00;93044.97;2125653;27;20453;-73
2023/03/21 05:25:05;;;;;;;3.65;2.38;;;;;;;-0.67;100.00;93046.03;2121040;27;20092;-74
2023/03/21 05:26:08;;;;;;;4.72;3.20;;;;;;;-0.74;100.00;93047.78;2113064;28;20036;-71
2023/03/21 05:27:12;;;;;;;5.65;4.57;;;;;;;-0.72;100.00;93042.94;2121963;27;20035;-76
2023/03/21 05:28:22;;;;;;;6.05;5.07;;;;;;;-0.75;100.00;93039.13;2130461;27;20030;-73
2023/03/21 05:29:24;;;;;;;9.25;7.78;;;;;;;-0.72;100.00;93038.44;2121004;27;20041;-73
2023/03/21 05:30:24;;;;;;;14.25;12.45;;;;;;;-0.72;100.00;93048.94;2112977;28;20093;-76
2023/03/21 05:31:26;;;;;;;23.67;19.50;;;;;;;-0.77;100.00;93049.22;2121543;27;20031;-73